Time;durP1;ratioP1;P1;durP2;ratioP2;P2;SDS_P1;SDS_P2;PMS_P1;PMS_P2;Temp;Humidity;BMP_temperature;BMP_pressure;BME280_temperature;BME280_humidity;BME280_pressure;Samples;Min_cycle;Max_cycle;Signal;HPM_P1;HPM_P2
2022/05/14 00:01:33;;;;;;;4.93;2.50;;;13.20;40.60;;;;;;5046956;28;20407;-70
2022/05/14 00:03:59;;;;;;;7.13;2.40;;;13.00;40.50;;;;;;5064184;28;20404;-70
2022/05/14 00:06:27;;;;;;;5.23;2.60;;;13.00;40.70;;;;;;5046617;28;20458;-69
2022/05/14 00:08:53;;;;;;;3.03;2.27;;;13.00;40.60;;;;;;5063887;28;20708;-69
2022/05/14 00:14:05;;;;;;;4.13;2.37;;;12.90;44.40;;;;;;5048712;28;20418;-69
2022/05/14 00:16:33;;;;;;;3.03;2.30;;;12.90;42.20;;;;;;5045681;28;20468;-68
2022/05/14 00:19:01;;;;;;;3.97;1.90;;;12.90;45.20;;;;;;5066539;28;20414;-69
2022/05/14 00:21:27;;;;;;;3.03;2.30;;;12.80;43.60;;;;;;5065658;28;20900;-69
2022/05/14 00:23:52;;;;;;;3.80;2.40;;;12.80;47.60;;;;;;5050524;28;20415;-69
2022/05/14 00:26:18;;;;;;;9.50;2.50;;;12.80;41.50;;;;;;5066073;28;20219;-69
2022/05/14 00:28:44;;;;;;;4.17;2.20;;;12.80;48.50;;;;;;5067772;28;20488;-70
2022/05/14 00:31:09;;;;;;;5.33;2.23;;;12.60;53.40;;;;;;5040640;28;20586;-69
2022/05/14 00:33:35;;;;;;;5.70;2.43;;;12.60;56.60;;;;;;5055032;28;20238;-69
2022/05/14 00:36:02;;;;;;;3.00;2.33;;;12.80;53.70;;;;;;5046639;28;20195;-69
2022/05/14 00:38:29;;;;;;;3.37;2.20;;;12.60;56.90;;;;;;5048353;28;20422;-69
2022/05/14 00:41:06;;;;;;;4.27;2.50;;;12.50;62.50;;;;;;5045399;28;20434;-68
2022/05/14 00:43:33;;;;;;;6.30;2.30;;;12.40;64.10;;;;;;5048886;28;20448;-69
2022/05/14 00:46:08;;;;;;;4.40;2.80;;;12.30;64.40;;;;;;5047234;28;20947;-69
2022/05/14 00:48:39;;;;;;;5.73;2.40;;;12.30;68.00;;;;;;5017277;28;20403;-69
2022/05/14 00:51:06;;;;;;;3.60;2.30;;;12.30;68.00;;;;;;5049371;28;20407;-69
2022/05/14 00:53:38;;;;;;;6.70;2.50;;;12.20;68.60;;;;;;5042299;28;20514;-70
2022/05/14 00:56:08;;;;;;;4.40;2.40;;;12.10;73.10;;;;;;5061913;28;20686;-70
2022/05/14 00:59:02;;;;;;;3.53;2.50;;;12.10;74.40;;;;;;5054508;28;20452;-69
2022/05/14 01:01:29;;;;;;;5.67;2.60;;;12.00;73.20;;;;;;5068719;28;20442;-69
2022/05/14 01:03:55;;;;;;;4.40;2.43;;;12.00;79.80;;;;;;5070858;28;20518;-69
2022/05/14 01:06:21;;;;;;;5.47;2.30;;;12.10;77.90;;;;;;5069799;28;20513;-69
2022/05/14 01:08:48;;;;;;;4.70;2.47;;;12.10;74.50;;;;;;5070891;28;20396;-69
2022/05/14 01:11:15;;;;;;;4.90;3.23;;;12.60;77.60;;;;;;5069120;28;20674;-69
2022/05/14 01:13:40;;;;;;;6.70;2.67;;;12.00;80.70;;;;;;5070530;28;20395;-69
2022/05/14 01:16:06;;;;;;;5.57;2.37;;;12.30;80.40;;;;;;5069050;28;20433;-68
2022/05/14 01:18:34;;;;;;;4.43;2.60;;;12.10;78.90;;;;;;5070183;28;20659;-68
2022/05/14 01:21:04;;;;;;;3.10;2.30;;;12.00;78.00;;;;;;5069376;28;20177;-68
2022/05/14 01:26:27;;;;;;;3.33;2.60;;;12.00;79.90;;;;;;5070582;28;20394;-69
2022/05/14 01:26:27;;;;;;;4.90;2.90;;;11.80;83.40;;;;;;5070564;28;20453;-69
2022/05/14 01:28:54;;;;;;;7.00;3.37;;;11.80;86.10;;;;;;5069869;28;20976;-69
2022/05/14 01:31:19;;;;;;;2.63;2.10;;;11.80;89.50;;;;;;5034938;28;20407;-69
2022/05/14 01:33:45;;;;;;;6.03;2.10;;;11.80;90.00;;;;;;5070290;28;20453;-69
2022/05/14 01:36:10;;;;;;;4.33;2.73;;;11.80;91.50;;;;;;5070749;28;20269;-69
2022/05/14 01:38:36;;;;;;;3.43;2.43;;;11.80;89.40;;;;;;5053366;28;20537;-69
2022/05/14 01:41:02;;;;;;;3.93;2.50;;;11.80;91.50;;;;;;5070039;28;20222;-68
2022/05/14 01:43:28;;;;;;;3.50;2.53;;;11.80;91.00;;;;;;5069479;28;20275;-69
2022/05/14 01:45:54;;;;;;;3.57;2.40;;;11.80;90.20;;;;;;5051847;28;20173;-69
2022/05/14 01:48:19;;;;;;;4.43;2.57;;;11.80;92.80;;;;;;5052692;28;20433;-69
2022/05/14 01:50:45;;;;;;;4.63;2.73;;;11.90;90.70;;;;;;5070360;28;20204;-69
2022/05/14 01:53:11;;;;;;;3.43;2.90;;;11.70;91.30;;;;;;5068883;28;20164;-69
2022/05/14 01:55:36;;;;;;;4.77;2.40;;;11.70;91.90;;;;;;5052613;28;20173;-69
2022/05/14 01:58:36;;;;;;;5.50;2.67;;;11.80;91.90;;;;;;5052578;28;20188;-69
2022/05/14 02:00:49;;;;;;;3.77;2.43;;;11.80;91.70;;;;;;5068341;28;20526;-68
2022/05/14 02:03:14;;;;;;;4.17;2.60;;;11.80;91.90;;;;;;5068317;28;20403;-69
2022/05/14 02:05:40;;;;;;;5.03;2.67;;;11.80;92.90;;;;;;5070395;28;20168;-69
2022/05/14 02:08:05;;;;;;;3.07;2.30;;;11.70;92.40;;;;;;5070785;28;20320;-69
2022/05/14 02:10:31;;;;;;;5.33;2.70;;;11.80;91.90;;;;;;5070172;28;20192;-69
2022/05/14 02:12:57;;;;;;;3.83;2.70;;;11.70;94.90;;;;;;5069948;28;20196;-69
2022/05/14 02:15:23;;;;;;;2.50;2.30;;;11.60;95.10;;;;;;5070390;28;20619;-69
2022/05/14 02:17:49;;;;;;;4.20;2.30;;;11.80;96.60;;;;;;5067959;28;20435;-70
2022/05/14 02:20:16;;;;;;;3.87;2.30;;;11.70;96.30;;;;;;5070211;28;20452;-69
2022/05/14 02:22:41;;;;;;;5.17;2.47;;;11.60;98.50;;;;;;5069778;28;20198;-68
2022/05/14 02:25:07;;;;;;;2.57;2.30;;;11.70;95.50;;;;;;5052112;28;20533;-69
2022/05/14 02:27:33;;;;;;;3.10;2.23;;;11.60;96.10;;;;;;5069179;28;20219;-69
2022/05/14 02:29:59;;;;;;;4.10;2.73;;;11.60;97.10;;;;;;5052117;28;20450;-68
2022/05/14 02:32:26;;;;;;;2.77;2.50;;;11.50;98.30;;;;;;5069058;28;20171;-69
2022/05/14 02:34:53;;;;;;;4.20;2.50;;;11.50;98.40;;;;;;5052676;28;20306;-69
2022/05/14 02:37:23;;;;;;;6.33;2.63;;;11.40;97.10;;;;;;5067842;28;20525;-69
2022/05/14 02:39:50;;;;;;;4.03;2.67;;;11.50;97.00;;;;;;5052017;28;20910;-69
2022/05/14 02:42:16;;;;;;;3.20;2.53;;;11.40;98.40;;;;;;5069426;28;20869;-69
2022/05/14 02:44:42;;;;;;;5.40;2.77;;;11.30;99.60;;;;;;5068551;28;20415;-69
2022/05/14 02:47:08;;;;;;;4.87;2.53;;;11.40;98.10;;;;;;5068912;28;20556;-69
2022/05/14 02:49:34;;;;;;;2.87;2.40;;;11.30;99.20;;;;;;5068945;28;20237;-69
2022/05/14 02:51:59;;;;;;;3.60;2.30;;;11.30;98.60;;;;;;5068236;28;20422;-67
2022/05/14 02:54:25;;;;;;;4.47;2.70;;;11.30;99.60;;;;;;5068474;28;20180;-69
2022/05/14 02:56:51;;;;;;;4.60;2.50;;;11.30;99.60;;;;;;5050662;28;20326;-69
2022/05/14 02:59:17;;;;;;;3.00;2.47;;;11.30;99.60;;;;;;5051682;28;20169;-69
2022/05/14 03:01:48;;;;;;;3.23;2.30;;;11.20;99.60;;;;;;5050299;28;20426;-70
2022/05/14 03:04:30;;;;;;;4.47;2.77;;;11.10;99.50;;;;;;5069878;28;20172;-69
2022/05/14 03:06:57;;;;;;;4.40;2.50;;;11.10;99.90;;;;;;5067507;28;20930;-69
2022/05/14 03:09:24;;;;;;;5.20;2.40;;;11.10;99.90;;;;;;5068394;28;20458;-68
2022/05/14 03:11:51;;;;;;;3.67;2.50;;;11.10;99.90;;;;;;5066911;28;20982;-69
2022/05/14 03:14:17;;;;;;;7.03;2.47;;;11.00;99.90;;;;;;5069382;28;20411;-69
2022/05/14 03:16:43;;;;;;;3.30;2.50;;;11.00;99.90;;;;;;5066862;28;20422;-68
2022/05/14 03:19:10;;;;;;;4.67;2.77;;;11.00;99.90;;;;;;5069251;28;20921;-69
2022/05/14 03:21:37;;;;;;;9.10;3.00;;;11.00;99.90;;;;;;5067982;28;20438;-69
2022/05/14 03:24:03;;;;;;;4.80;2.60;;;11.00;99.90;;;;;;5069444;28;20905;-72
2022/05/14 03:26:28;;;;;;;4.30;2.33;;;10.90;99.90;;;;;;5050342;28;20734;-72
2022/05/14 03:28:54;;;;;;;3.87;2.17;;;10.90;99.90;;;;;;5067666;28;20914;-69
2022/05/14 03:31:19;;;;;;;5.30;2.60;;;10.90;99.90;;;;;;5066325;28;20203;-69
2022/05/14 03:33:45;;;;;;;4.03;2.40;;;10.90;99.90;;;;;;5067653;28;20558;-69
2022/05/14 03:36:11;;;;;;;7.53;3.03;;;10.90;99.90;;;;;;5067115;28;20212;-69
2022/05/14 03:38:37;;;;;;;2.57;2.37;;;10.90;99.90;;;;;;5051169;28;20359;-70
2022/05/14 03:41:04;;;;;;;4.13;2.30;;;10.80;99.90;;;;;;5067731;28;20160;-68
2022/05/14 03:43:30;;;;;;;5.03;2.60;;;10.90;99.90;;;;;;5061848;28;20411;-70
2022/05/14 03:45:57;;;;;;;2.93;2.20;;;11.00;99.90;;;;;;5066326;28;20403;-70
2022/05/14 03:48:22;;;;;;;3.60;2.50;;;11.00;99.90;;;;;;5066745;28;20854;-69
2022/05/14 03:50:48;;;;;;;3.30;2.90;;;11.00;99.90;;;;;;5067026;28;20528;-69
2022/05/14 03:53:14;;;;;;;4.40;2.83;;;11.00;99.90;;;;;;5066799;28;20579;-69
2022/05/14 03:55:40;;;;;;;2.50;2.30;;;11.20;99.90;;;;;;5050393;28;20622;-68
2022/05/14 03:58:05;;;;;;;3.27;2.60;;;11.00;99.90;;;;;;5065101;28;20173;-69
2022/05/14 04:00:31;;;;;;;4.40;2.60;;;11.00;99.90;;;;;;5066204;28;20505;-70
2022/05/14 04:02:57;;;;;;;4.57;3.00;;;11.00;99.90;;;;;;5062401;28;20603;-69
2022/05/14 04:05:22;;;;;;;5.93;2.80;;;11.00;99.90;;;;;;5047092;28;20483;-69
2022/05/14 04:07:48;;;;;;;3.00;2.27;;;11.00;99.90;;;;;;5048449;28;20624;-69
2022/05/14 04:10:16;;;;;;;3.87;2.57;;;11.00;99.90;;;;;;5048066;28;20261;-69
2022/05/14 04:12:42;;;;;;;3.80;2.90;;;11.00;99.90;;;;;;5045885;28;20188;-68
2022/05/14 04:15:09;;;;;;;6.10;3.33;;;11.10;99.90;;;;;;5047004;28;20399;-69
2022/05/14 04:17:35;;;;;;;6.37;3.47;;;;;;;;;;5038200;28;20932;-69
2022/05/14 04:20:01;;;;;;;4.10;2.67;;;11.10;99.90;;;;;;5060234;28;20441;-68
2022/05/14 04:22:30;;;;;;;5.30;2.73;;;11.20;99.90;;;;;;5065432;28;20206;-69
2022/05/14 04:24:56;;;;;;;2.90;2.40;;;11.30;99.90;;;;;;5066817;28;20498;-69
2022/05/14 04:27:21;;;;;;;3.27;2.50;;;11.30;99.90;;;;;;5067629;28;20575;-69
2022/05/14 04:29:47;;;;;;;3.27;2.50;;;11.40;99.90;;;;;;5067894;28;20214;-69
2022/05/14 04:32:12;;;;;;;3.30;2.30;;;11.30;99.90;;;;;;5048328;28;20200;-69
2022/05/14 04:34:38;;;;;;;4.13;2.60;;;11.40;99.90;;;;;;5066344;28;20213;-69
2022/05/14 04:37:04;;;;;;;3.77;2.40;;;11.40;99.90;;;;;;5066629;28;20621;-69
2022/05/14 04:39:32;;;;;;;2.40;2.20;;;11.50;99.90;;;;;;5083350;28;20184;-69
2022/05/14 04:42:00;;;;;;;3.27;2.23;;;11.50;99.90;;;;;;5065442;28;20678;-69
2022/05/14 04:44:29;;;;;;;4.37;2.80;;;11.60;99.90;;;;;;5066672;28;20403;-70
2022/05/14 04:46:55;;;;;;;2.47;2.27;;;11.60;99.90;;;;;;5065832;28;20435;-70
2022/05/14 04:49:21;;;;;;;3.63;2.20;;;;;;;;;;5066792;28;20991;-69
2022/05/14 04:51:47;;;;;;;9.00;2.53;;;11.80;99.90;;;;;;5065419;28;20464;-70
2022/05/14 04:54:13;;;;;;;4.10;2.70;;;11.80;99.90;;;;;;5049440;28;20522;-69
2022/05/14 04:56:39;;;;;;;6.10;3.00;;;11.90;99.90;;;;;;5065949;28;20572;-70
2022/05/14 04:59:05;;;;;;;4.57;2.60;;;12.00;99.90;;;;;;5067822;28;20215;-70
2022/05/14 05:01:30;;;;;;;3.83;2.60;;;12.10;99.90;;;;;;5064885;28;20179;-70
2022/05/14 05:03:57;;;;;;;4.93;2.47;;;12.20;99.90;;;;;;5066753;28;20411;-70
2022/05/14 05:06:23;;;;;;;8.17;2.47;;;12.20;99.90;;;;;;5065831;28;20288;-70
2022/05/14 05:08:51;;;;;;;8.33;2.73;;;12.30;99.90;;;;;;5067800;28;20426;-70
2022/05/14 05:11:17;;;;;;;3.60;2.47;;;12.40;99.90;;;;;;5066835;28;20824;-70
2022/05/14 05:13:43;;;;;;;3.60;2.70;;;12.50;99.90;;;;;;5066165;28;20409;-70
2022/05/14 05:16:09;;;;;;;4.23;2.70;;;12.60;99.90;;;;;;5048885;28;20892;-69
2022/05/14 05:18:35;;;;;;;7.43;2.77;;;12.70;99.90;;;;;;5066346;28;20164;-70
2022/05/14 05:21:01;;;;;;;5.50;2.87;;;12.80;97.70;;;;;;5066628;28;20913;-69
2022/05/14 05:23:27;;;;;;;6.87;2.63;;;12.90;97.20;;;;;;5067505;28;20168;-70
2022/05/14 05:25:53;;;;;;;4.03;2.70;;;13.10;96.00;;;;;;5049674;28;20164;-69
2022/05/14 05:28:19;;;;;;;5.73;3.33;;;13.10;97.40;;;;;;5066410;28;20399;-70
2022/05/14 05:30:45;;;;;;;6.43;2.77;;;13.10;94.00;;;;;;5065927;28;20464;-70
2022/05/14 05:33:13;;;;;;;5.97;2.90;;;13.20;94.20;;;;;;5064517;28;20675;-70
2022/05/14 05:35:39;;;;;;;6.93;2.87;;;13.20;95.40;;;;;;5068303;28;20616;-70
2022/05/14 05:38:05;;;;;;;7.03;2.97;;;13.30;95.70;;;;;;5069804;28;20422;-70
2022/05/14 05:40:30;;;;;;;4.13;2.93;;;13.40;95.00;;;;;;5069468;28;20951;-70
2022/05/14 05:42:56;;;;;;;7.07;3.40;;;13.60;92.90;;;;;;5068777;28;20176;-70
2022/05/14 05:45:22;;;;;;;4.20;3.17;;;13.50;94.10;;;;;;5070513;28;20183;-69
2022/05/14 05:47:48;;;;;;;5.30;3.03;;;13.70;92.00;;;;;;5070101;28;20577;-70
2022/05/14 05:50:14;;;;;;;5.03;3.00;;;13.80;92.70;;;;;;5069638;28;20446;-70
2022/05/14 05:52:40;;;;;;;7.20;3.37;;;13.80;91.60;;;;;;5052014;28;20643;-69
2022/05/14 05:57:50;;;;;;;5.57;2.80;;;13.90;90.40;;;;;;5056133;28;20566;-70
2022/05/14 06:00:19;;;;;;;3.30;2.83;;;14.10;87.80;;;;;;5052180;28;20414;-70
2022/05/14 06:02:46;;;;;;;10.63;3.13;;;14.00;90.70;;;;;;5069366;28;20176;-70
2022/05/14 06:05:13;;;;;;;6.90;2.97;;;14.10;86.90;;;;;;5069091;28;20624;-70
2022/05/14 06:07:39;;;;;;;11.93;3.17;;;14.40;86.00;;;;;;5068722;28;20468;-69
2022/05/14 06:10:07;;;;;;;3.97;3.03;;;14.30;82.90;;;;;;5070249;28;20549;-69
2022/05/14 06:12:34;;;;;;;6.03;3.00;;;14.30;85.70;;;;;;5068358;28;20452;-70
2022/05/14 06:15:00;;;;;;;5.53;3.10;;;14.40;86.00;;;;;;5068740;28;20921;-70
2022/05/14 06:17:26;;;;;;;4.43;2.50;;;14.40;85.30;;;;;;5051153;28;20465;-72
2022/05/14 06:19:51;;;;;;;6.13;2.93;;;14.60;83.60;;;;;;5052372;28;20180;-71
2022/05/14 06:22:17;;;;;;;4.33;2.87;;;14.60;82.60;;;;;;5069984;28;20184;-71
2022/05/14 06:24:42;;;;;;;4.23;2.70;;;14.70;80.40;;;;;;5070600;28;20196;-70
2022/05/14 06:27:08;;;;;;;5.07;3.00;;;14.60;79.90;;;;;;5052762;28;20197;-71
2022/05/14 06:29:34;;;;;;;6.20;2.90;;;14.80;77.60;;;;;;5052670;28;20564;-71
2022/05/14 06:32:00;;;;;;;7.73;2.90;;;14.90;76.00;;;;;;5068888;28;20308;-71
2022/05/14 06:34:26;;;;;;;6.33;2.97;;;15.00;75.60;;;;;;5070436;28;20579;-72
2022/05/14 06:36:52;;;;;;;5.60;2.53;;;15.20;73.40;;;;;;5069490;28;20196;-72
2022/05/14 06:39:20;;;;;;;4.10;2.50;;;15.30;66.40;;;;;;5069555;28;20834;-72
2022/05/14 06:41:47;;;;;;;3.40;2.60;;;15.40;68.20;;;;;;5067460;28;20581;-72
2022/05/14 06:44:13;;;;;;;4.70;2.57;;;15.60;66.40;;;;;;5068849;28;20476;-71
2022/05/14 06:46:39;;;;;;;4.77;2.50;;;15.80;58.70;;;;;;5066570;28;20409;-72
2022/05/14 06:49:04;;;;;;;4.43;2.90;;;15.80;57.10;;;;;;5070431;28;20450;-72
2022/05/14 06:51:31;;;;;;;4.97;2.50;;;15.90;56.90;;;;;;5068096;28;20177;-72
2022/05/14 06:54:03;;;;;;;7.03;2.73;;;16.10;49.60;;;;;;5085687;28;20173;-72
2022/05/14 06:56:32;;;;;;;4.50;2.50;;;16.20;45.20;;;;;;5051612;28;20466;-72
2022/05/14 06:59:00;;;;;;;7.17;2.77;;;16.30;47.20;;;;;;5052346;28;20536;-71
2022/05/14 07:01:27;;;;;;;6.63;2.57;;;16.40;43.60;;;;;;5067400;28;20426;-70
2022/05/14 07:06:38;;;;;;;5.30;2.57;;;16.70;43.60;;;;;;5070094;28;20763;-72
2022/05/14 07:09:06;;;;;;;6.10;2.90;;;17.20;44.00;;;;;;5069536;28;20450;-72
2022/05/14 07:11:34;;;;;;;6.40;3.43;;;17.30;44.10;;;;;;5066622;28;20255;-71
2022/05/14 07:14:01;;;;;;;3.90;2.80;;;17.60;44.30;;;;;;5067764;28;20903;-72
2022/05/14 07:16:26;;;;;;;6.30;3.17;;;17.80;44.60;;;;;;5066406;28;20438;-71
2022/05/14 07:18:52;;;;;;;4.03;2.87;;;17.90;43.60;;;;;;5051394;28;20888;-71
2022/05/14 07:21:18;;;;;;;4.60;2.57;;;18.00;35.20;;;;;;5067850;28;20644;-71
2022/05/14 07:23:43;;;;;;;3.70;3.00;;;18.30;34.40;;;;;;5067957;28;20577;-72
2022/05/14 07:26:10;;;;;;;5.30;2.90;;;18.60;32.50;;;;;;5068148;28;20200;-71
2022/05/14 07:28:37;;;;;;;5.80;3.30;;;18.80;26.30;;;;;;5067704;28;20251;-72
2022/05/14 07:31:03;;;;;;;4.57;3.23;;;18.80;27.50;;;;;;5049440;28;20421;-72
2022/05/14 07:33:30;;;;;;;8.70;3.00;;;19.30;28.40;;;;;;5067197;28;20517;-71
2022/05/14 07:36:01;;;;;;;6.03;2.73;;;19.50;18.90;;;;;;5066943;28;20729;-72
2022/05/14 07:38:27;;;;;;;5.80;3.17;;;19.50;22.00;;;;;;5034976;28;20410;-72
2022/05/14 07:40:53;;;;;;;8.03;2.80;;;19.70;19.10;;;;;;5049234;28;20438;-70
2022/05/14 07:43:22;;;;;;;7.20;2.53;;;19.90;21.10;;;;;;5033745;28;20449;-72
2022/05/14 07:45:55;;;;;;;4.63;2.80;;;20.20;18.00;;;;;;5067821;28;20298;-72
2022/05/14 07:48:26;;;;;;;5.10;2.80;;;20.60;16.90;;;;;;5068711;28;20449;-72
2022/05/14 07:50:52;;;;;;;6.43;2.83;;;20.70;15.80;;;;;;5066172;28;21006;-70
2022/05/14 07:53:18;;;;;;;4.47;2.50;;;20.80;10.90;;;;;;5034255;28;20419;-72
2022/05/14 07:55:44;;;;;;;6.93;2.80;;;21.10;4.90;;;;;;5066479;28;20318;-71
2022/05/14 07:58:11;;;;;;;6.33;2.60;;;21.30;7.80;;;;;;5050488;28;20919;-72
2022/05/14 08:00:37;;;;;;;5.10;2.67;;;21.40;7.30;;;;;;5066444;28;20191;-72
2022/05/14 08:03:03;;;;;;;6.40;2.60;;;21.70;7.00;;;;;;5065704;28;20457;-72
2022/05/14 08:05:29;;;;;;;6.17;3.00;;;21.80;5.10;;;;;;5066662;28;20413;-72
2022/05/14 08:07:55;;;;;;;12.70;3.70;;;21.90;5.20;;;;;;5049892;28;20517;-72
2022/05/14 08:10:21;;;;;;;5.97;2.93;;;22.10;2.90;;;;;;5066309;28;20200;-72
2022/05/14 08:12:55;;;;;;;6.33;3.03;;;22.30;4.30;;;;;;5067676;28;20266;-72
2022/05/14 08:15:22;;;;;;;7.53;3.20;;;22.60;2.70;;;;;;5066885;28;20223;-72
2022/05/14 08:17:48;;;;;;;6.40;3.20;;;23.00;1.00;;;;;;5064206;28;20500;-72
2022/05/14 08:20:14;;;;;;;7.70;3.60;;;23.00;1.00;;;;;;5064111;28;20469;-71
2022/05/14 08:25:45;;;;;;;8.50;3.27;;;22.40;1.00;;;;;;5063214;28;20499;-71
2022/05/14 08:28:10;;;;;;;5.13;3.17;;;22.20;1.00;;;;;;5052254;28;20819;-72
2022/05/14 08:30:37;;;;;;;4.70;3.27;;;22.30;1.00;;;;;;5056235;28;20475;-72
2022/05/14 08:33:04;;;;;;;5.23;3.17;;;22.50;1.00;;;;;;5045506;28;20199;-72
2022/05/14 08:35:30;;;;;;;7.10;2.70;;;22.90;1.00;;;;;;5065413;28;20489;-72
2022/05/14 08:37:56;;;;;;;6.70;2.70;;;23.70;1.00;;;;;;5066868;28;20442;-75
2022/05/14 08:40:28;;;;;;;5.20;2.50;;;24.60;1.00;;;;;;5066211;28;20179;-72
2022/05/14 08:42:56;;;;;;;10.50;3.30;;;25.80;1.00;;;;;;5067663;28;20421;-73
2022/05/14 08:45:25;;;;;;;9.47;3.00;;;27.00;1.00;;;;;;5066648;28;20426;-72
2022/05/14 08:47:58;;;;;;;11.17;2.70;;;27.40;1.00;;;;;;5067230;28;20529;-72
2022/05/14 08:50:48;;;;;;;6.43;3.17;;;28.00;1.00;;;;;;5066433;28;20634;-73
2022/05/14 08:53:14;;;;;;;6.72;2.63;;;29.10;1.00;;;;;;5067117;28;20219;-70
2022/05/14 08:55:46;;;;;;;11.50;2.90;;;29.60;1.00;;;;;;5066095;28;20169;-70
2022/05/14 08:58:21;;;;;;;8.60;2.78;;;29.60;1.00;;;;;;5050127;28;20160;-70
2022/05/14 09:00:46;;;;;;;6.38;3.00;;;29.80;1.00;;;;;;5065967;28;20330;-70
2022/05/14 09:03:12;;;;;;;5.35;2.80;;;30.60;1.00;;;;;;5066713;28;20251;-70
2022/05/14 09:05:38;;;;;;;13.02;3.50;;;31.40;1.00;;;;;;5066132;28;20231;-70
2022/05/14 09:08:04;;;;;;;4.53;2.58;;;31.60;1.00;;;;;;5064020;28;20227;-71
2022/05/14 09:10:39;;;;;;;6.45;2.80;;;31.90;1.00;;;;;;5065112;28;20195;-69
2022/05/14 09:13:13;;;;;;;6.32;2.70;;;32.20;1.00;;;;;;5069172;28;20210;-70
2022/05/14 09:15:46;;;;;;;5.43;2.60;;;32.60;1.00;;;;;;5070424;28;20207;-71
2022/05/14 09:18:23;;;;;;;5.03;2.67;;;32.90;1.00;;;;;;5069320;28;20183;-70
2022/05/14 09:20:59;;;;;;;7.63;2.83;;;33.60;1.00;;;;;;5069601;28;20301;-70
2022/05/14 09:23:49;;;;;;;4.03;2.20;;;33.90;1.00;;;;;;5071928;28;20320;-71
2022/05/14 09:26:20;;;;;;;9.05;2.80;;;34.40;1.00;;;;;;5068992;28;20199;-71
2022/05/14 09:28:48;;;;;;;7.78;2.97;;;34.90;1.00;;;;;;5066397;28;20168;-71
2022/05/14 09:31:29;;;;;;;4.13;2.50;;;34.60;1.00;;;;;;5049392;28;20272;-70
2022/05/14 09:34:05;;;;;;;5.82;2.70;;;34.00;1.00;;;;;;5054123;28;20706;-71
2022/05/14 09:36:31;;;;;;;4.93;2.60;;;33.80;1.00;;;;;;5068620;28;20196;-70
2022/05/14 09:39:06;;;;;;;4.82;2.38;;;34.20;1.00;;;;;;5069371;28;20290;-71
2022/05/14 09:41:39;;;;;;;6.30;2.50;;;35.20;1.00;;;;;;5069259;28;20250;-70
2022/05/14 09:44:06;;;;;;;6.68;2.50;;;35.20;1.00;;;;;;5064054;28;20172;-70
2022/05/14 09:46:32;;;;;;;5.72;2.53;;;34.90;1.00;;;;;;5067959;28;20195;-71
2022/05/14 09:49:05;;;;;;;6.85;2.60;;;35.10;1.00;;;;;;5052604;28;20176;-71
2022/05/14 09:51:49;;;;;;;26.83;3.35;;;34.80;1.00;;;;;;5067832;28;20270;-71
2022/05/14 09:54:29;;;;;;;7.70;2.97;;;34.80;1.00;;;;;;5054869;28;20601;-72
2022/05/14 09:57:12;;;;;;;8.68;2.97;;;35.20;1.00;;;;;;5068674;28;20256;-73
2022/05/14 10:00:07;;;;;;;6.22;2.67;;;35.70;1.00;;;;;;5052693;28;20184;-72
2022/05/14 10:03:05;;;;;;;6.65;2.38;;;35.70;1.00;;;;;;5067515;28;20176;-74
2022/05/14 10:05:50;;;;;;;7.55;2.88;;;35.00;1.00;;;;;;5059425;28;20177;-71
2022/05/14 10:08:40;;;;;;;5.22;2.40;;;35.40;1.00;;;;;;5060760;28;20183;-71
2022/05/14 10:11:10;;;;;;;5.65;2.30;;;36.60;1.00;;;;;;5060881;28;20200;-71
2022/05/14 10:13:53;;;;;;;5.45;2.63;;;37.30;1.00;;;;;;5061727;28;20177;-71
2022/05/14 10:16:32;;;;;;;6.00;2.75;;;37.30;1.00;;;;;;5069050;28;20506;-72
2022/05/14 10:19:22;;;;;;;6.78;2.63;;;37.50;1.00;;;;;;5080216;28;20209;-74
2022/05/14 10:22:08;;;;;;;6.97;2.80;;;37.30;1.00;;;;;;5068252;28;20168;-72
2022/05/14 10:27:52;;;;;;;7.80;2.50;;;37.20;1.00;;;;;;5069561;28;20211;-71
2022/05/14 10:30:24;;;;;;;6.07;2.38;;;37.50;1.00;;;;;;5069189;28;20528;-72
2022/05/14 10:32:59;;;;;;;5.75;2.20;;;37.10;1.00;;;;;;5048153;28;20180;-73
2022/05/14 10:35:34;;;;;;;5.65;2.22;;;37.50;1.00;;;;;;5029453;28;20168;-72
2022/05/14 10:38:06;;;;;;;7.18;2.60;;;37.80;1.00;;;;;;5051662;28;20501;-74
2022/05/14 10:40:36;;;;;;;5.85;2.47;;;37.80;1.00;;;;;;5067538;28;20175;-75
2022/05/14 10:43:27;;;;;;;10.02;2.67;;;37.80;1.00;;;;;;5061523;28;20426;-72
2022/05/14 10:45:56;;;;;;;5.03;2.28;;;37.80;1.00;;;;;;5068078;28;20809;-72
2022/05/14 10:48:46;;;;;;;4.63;2.30;;;37.70;1.00;;;;;;5068089;28;20245;-73
2022/05/14 10:51:20;;;;;;;4.05;2.10;;;38.10;1.00;;;;;;5048726;28;20563;-72
2022/05/14 10:53:46;;;;;;;4.28;2.20;;;37.20;1.00;;;;;;5065096;28;20522;-73
2022/05/14 10:56:16;;;;;;;5.35;2.53;;;37.20;1.00;;;;;;5067361;28;20302;-72
2022/05/14 10:59:05;;;;;;;7.00;2.40;;;37.80;1.00;;;;;;5068938;28;20179;-71
2022/05/14 11:01:48;;;;;;;5.90;2.55;;;37.50;1.00;;;;;;5066316;28;20511;-72
2022/05/14 11:04:17;;;;;;;4.07;2.22;;;38.30;1.00;;;;;;5068299;28;20172;-72
2022/05/14 11:06:54;;;;;;;3.75;2.03;;;38.60;1.00;;;;;;5068219;28;20474;-72
2022/05/14 11:09:37;;;;;;;3.38;2.03;;;38.60;1.00;;;;;;5068863;28;20211;-72
2022/05/14 11:12:08;;;;;;;5.90;2.47;;;38.10;1.00;;;;;;5067558;28;20215;-72
2022/05/14 11:14:40;;;;;;;6.03;2.60;;;38.20;1.00;;;;;;5068927;28;20187;-72
2022/05/14 11:17:18;;;;;;;4.63;2.20;;;37.70;1.00;;;;;;5065874;28;20192;-72
2022/05/14 11:19:44;;;;;;;7.45;2.40;;;38.10;1.00;;;;;;5066360;28;20650;-71
2022/05/14 11:22:30;;;;;;;4.50;2.20;;;38.30;1.00;;;;;;5066074;28;20180;-72
2022/05/14 11:24:57;;;;;;;5.53;2.47;;;39.40;1.00;;;;;;5067365;28;20291;-72
2022/05/14 11:27:33;;;;;;;4.47;2.08;;;39.50;1.00;;;;;;5050837;28;20203;-72
2022/05/14 11:30:07;;;;;;;3.95;2.10;;;38.90;1.00;;;;;;5082628;28;20445;-72
2022/05/14 11:32:48;;;;;;;4.05;2.15;;;38.80;1.00;;;;;;5048460;28;20296;-72
2022/05/14 11:35:15;;;;;;;4.45;2.05;;;38.60;1.00;;;;;;5048076;28;20174;-72
2022/05/14 11:37:45;;;;;;;6.45;2.25;;;38.30;1.00;;;;;;5049625;28;20291;-72
2022/05/14 11:40:20;;;;;;;6.70;2.35;;;38.30;1.00;;;;;;5066855;28;20717;-72
2022/05/14 11:42:50;;;;;;;4.57;2.55;;;38.50;1.00;;;;;;5066527;28;20179;-72
2022/05/14 11:45:23;;;;;;;5.15;2.45;;;38.60;1.00;;;;;;5068752;28;20172;-71
2022/05/14 11:48:18;;;;;;;4.32;2.13;;;38.70;1.00;;;;;;5065688;28;20320;-72
2022/05/14 11:51:12;;;;;;;4.78;2.40;;;38.90;1.00;;;;;;5067228;28;20211;-70
2022/05/14 11:53:42;;;;;;;5.13;2.00;;;39.50;1.00;;;;;;5066049;28;20502;-70
2022/05/14 11:56:15;;;;;;;5.05;2.22;;;40.20;1.00;;;;;;5038894;28;20658;-71
2022/05/14 11:58:48;;;;;;;6.72;2.13;;;39.50;1.00;;;;;;5045436;28;20192;-70
2022/05/14 12:01:18;;;;;;;3.53;2.10;;;39.70;1.00;;;;;;5064734;28;20236;-70
2022/05/14 12:03:44;;;;;;;5.53;2.03;;;39.90;1.00;;;;;;5067464;28;20255;-70
2022/05/14 12:07:01;;;;;;;4.47;1.77;;;40.70;1.00;;;;;;5063961;28;20260;-70
2022/05/14 12:09:26;;;;;;;3.95;1.95;;;41.80;1.00;;;;;;5025469;28;20223;-70
2022/05/14 12:12:01;;;;;;;5.93;2.10;;;42.90;1.00;;;;;;5059074;28;20669;-70
2022/05/14 12:14:32;;;;;;;4.57;1.92;;;42.20;1.00;;;;;;5060142;28;20673;-70
2022/05/14 12:17:01;;;;;;;3.92;2.15;;;40.90;1.00;;;;;;5057416;28;20656;-70
2022/05/14 12:19:39;;;;;;;5.72;2.45;;;40.20;1.00;;;;;;5066269;28;20274;-69
2022/05/14 12:22:29;;;;;;;5.43;1.90;;;38.80;1.00;;;;;;5050955;28;20236;-69
2022/05/14 12:25:02;;;;;;;3.70;2.13;;;39.70;1.00;;;;;;5056638;28;20211;-70
2022/05/14 12:27:31;;;;;;;6.35;2.30;;;40.40;1.00;;;;;;5056997;28;20214;-71
2022/05/14 12:33:11;;;;;;;3.63;1.90;;;40.20;1.00;;;;;;5064999;28;20380;-71
2022/05/14 12:33:12;;;;;;;5.93;1.90;;;39.80;1.00;;;;;;5057898;28;20183;-70
2022/05/14 12:35:43;;;;;;;4.28;1.70;;;40.20;1.00;;;;;;5065595;28;20593;-69
2022/05/14 12:38:11;;;;;;;6.22;2.00;;;40.60;1.00;;;;;;5065426;28;20282;-71
2022/05/14 12:40:40;;;;;;;4.88;1.90;;;40.70;1.00;;;;;;5065458;28;20171;-70
2022/05/14 12:43:12;;;;;;;7.80;1.70;;;40.90;1.00;;;;;;5047652;28;20176;-69
2022/05/14 12:45:41;;;;;;;4.95;1.85;;;41.50;1.00;;;;;;5031216;28;20187;-71
2022/05/14 12:48:09;;;;;;;4.05;1.95;;;41.70;1.00;;;;;;5035523;28;20235;-71
2022/05/14 12:50:35;;;;;;;6.10;2.30;;;41.50;1.00;;;;;;5048142;28;20237;-71
2022/05/14 12:53:05;;;;;;;2.85;1.55;;;41.40;1.00;;;;;;5085802;28;20164;-70
2022/05/14 12:55:35;;;;;;;87.78;16.60;;;41.90;1.00;;;;;;5063287;28;20669;-71
2022/05/14 12:58:04;;;;;;;5.15;2.00;;;42.00;1.00;;;;;;5069976;28;20663;-71
2022/05/14 13:00:33;;;;;;;8.63;1.90;;;42.00;1.00;;;;;;5053211;28;20233;-71
2022/05/14 13:03:24;;;;;;;7.95;1.73;;;41.50;1.00;;;;;;5068143;28;20538;-71
2022/05/14 13:06:03;;;;;;;5.00;2.35;;;41.40;1.00;;;;;;5055336;28;20175;-71
2022/05/14 13:08:30;;;;;;;8.10;2.25;;;41.40;1.00;;;;;;5066707;28;20198;-71
2022/05/14 13:11:04;;;;;;;4.18;2.20;;;41.40;1.00;;;;;;5068493;28;20215;-71
2022/05/14 13:13:41;;;;;;;3.08;1.60;;;41.90;1.00;;;;;;5072193;28;20179;-72
2022/05/14 13:16:13;;;;;;;3.85;1.70;;;42.50;1.00;;;;;;5069841;28;20695;-71
2022/05/14 13:18:49;;;;;;;3.95;1.90;;;42.80;1.00;;;;;;5069388;28;20183;-71